Time;durP1;ratioP1;P1;durP2;ratioP2;P2;SDS_P1;SDS_P2;PMS_P1;PMS_P2;Temp;Humidity;BMP_temperature;BMP_pressure;BME280_temperature;BME280_humidity;BME280_pressure;Samples;Min_cycle;Max_cycle;Signal;HPM_P1;HPM_P2
2022/01/05 00:01:11;;;;;;;8.13;2.78;;;2.80;99.90;;;;;;5110575;28;20091;-78
2022/01/05 00:03:36;;;;;;;3.75;2.53;;;2.70;99.90;;;;;;5092303;28;20415;-78
2022/01/05 00:06:02;;;;;;;4.40;2.70;;;2.70;99.90;;;;;;5110520;28;20024;-78
2022/01/05 00:08:28;;;;;;;7.07;2.67;;;2.60;99.90;;;;;;5091319;28;20027;-78
2022/01/05 00:10:53;;;;;;;5.18;2.20;;;2.60;99.90;;;;;;5110554;28;20478;-77
2022/01/05 00:13:20;;;;;;;7.03;2.78;;;2.50;99.90;;;;;;5089861;28;20106;-77
2022/01/05 00:15:46;;;;;;;6.43;2.42;;;2.50;99.90;;;;;;5108164;28;20511;-77
2022/01/05 00:18:11;;;;;;;7.60;2.33;;;2.40;99.90;;;;;;5090347;28;20085;-77
2022/01/05 00:20:37;;;;;;;7.40;2.28;;;2.40;99.90;;;;;;5107408;28;20107;-76
2022/01/05 00:23:02;;;;;;;4.82;2.17;;;2.40;99.90;;;;;;5110238;28;20489;-77
2022/01/05 00:25:28;;;;;;;8.25;3.00;;;2.40;99.90;;;;;;5093336;28;20038;-77
2022/01/05 00:27:54;;;;;;;5.65;2.58;;;2.30;99.90;;;;;;5101299;28;20064;-75
2022/01/05 00:30:19;;;;;;;7.50;2.90;;;2.30;99.90;;;;;;5107233;28;20098;-76
2022/01/05 00:32:45;;;;;;;7.13;2.10;;;2.20;99.90;;;;;;5109633;28;20039;-77
2022/01/05 00:35:10;;;;;;;4.72;2.13;;;2.20;99.90;;;;;;5091188;28;20483;-77
2022/01/05 00:37:36;;;;;;;4.60;1.90;;;2.10;99.90;;;;;;5110061;28;20023;-76
2022/01/05 00:40:03;;;;;;;9.75;2.33;;;2.10;99.90;;;;;;5089524;28;20024;-77
2022/01/05 00:42:29;;;;;;;5.10;1.80;;;2.10;99.90;;;;;;5094486;28;20024;-75
2022/01/05 00:44:55;;;;;;;3.63;1.73;;;2.10;99.90;;;;;;5106336;28;20482;-75
2022/01/05 00:47:20;;;;;;;3.90;1.63;;;2.10;99.90;;;;;;5089504;28;20028;-75
2022/01/05 00:49:46;;;;;;;5.88;2.20;;;2.10;99.90;;;;;;5108493;28;20036;-76
2022/01/05 00:52:13;;;;;;;12.82;2.97;;;2.00;99.90;;;;;;5087961;28;20035;-63
2022/01/05 00:54:39;;;;;;;7.80;2.50;;;2.00;99.90;;;;;;5108713;28;20027;-63
2022/01/05 00:57:04;;;;;;;6.47;2.40;;;2.00;99.90;;;;;;5087457;28;20031;-63
2022/01/05 00:59:30;;;;;;;8.15;2.10;;;2.00;99.90;;;;;;5108721;28;20028;-63
2022/01/05 01:01:55;;;;;;;5.85;1.70;;;1.90;99.90;;;;;;5086554;28;20051;-63
2022/01/05 01:04:21;;;;;;;10.25;2.28;;;1.90;99.90;;;;;;5108292;28;20024;-63
2022/01/05 01:06:46;;;;;;;5.30;1.70;;;1.90;99.90;;;;;;5087499;28;20106;-64
2022/01/05 01:09:13;;;;;;;6.15;2.13;;;1.90;99.90;;;;;;5108321;28;20019;-64
2022/01/05 01:11:38;;;;;;;5.82;2.60;;;1.90;99.90;;;;;;5087689;28;20051;-63
2022/01/05 01:14:04;;;;;;;3.67;2.00;;;1.90;99.90;;;;;;5107997;28;20019;-63
2022/01/05 01:16:30;;;;;;;8.63;2.58;;;2.00;99.90;;;;;;5087402;28;20403;-63
2022/01/05 01:18:55;;;;;;;5.95;2.05;;;2.00;99.90;;;;;;5108289;28;20034;-64
2022/01/05 01:21:21;;;;;;;8.15;2.58;;;2.00;99.90;;;;;;5087226;28;20423;-63
2022/01/05 01:23:55;;;;;;;5.13;2.10;;;2.00;99.90;;;;;;5108265;28;20027;-64
2022/01/05 01:26:27;;;;;;;6.63;2.70;;;2.00;99.90;;;;;;5099797;28;20513;-63
2022/01/05 01:28:53;;;;;;;6.30;2.78;;;2.00;99.90;;;;;;5088509;28;20047;-64
2022/01/05 01:31:19;;;;;;;5.00;2.47;;;2.00;99.90;;;;;;5093795;28;20040;-63
2022/01/05 01:33:45;;;;;;;6.10;2.13;;;2.00;99.90;;;;;;5108005;28;20027;-63
2022/01/05 01:36:11;;;;;;;4.00;2.13;;;2.00;99.90;;;;;;5087199;28;20040;-63
2022/01/05 01:38:36;;;;;;;4.40;1.80;;;2.10;99.90;;;;;;5108199;28;20488;-64
2022/01/05 01:41:02;;;;;;;6.22;2.17;;;2.10;99.90;;;;;;5096843;28;20055;-63
2022/01/05 01:43:28;;;;;;;8.50;2.70;;;2.10;99.90;;;;;;5082267;28;20020;-63
2022/01/05 01:45:53;;;;;;;5.32;2.17;;;2.10;99.90;;;;;;5106292;28;20216;-64
2022/01/05 01:48:19;;;;;;;6.57;2.20;;;2.20;99.90;;;;;;5088839;28;20032;-64
2022/01/05 01:50:44;;;;;;;5.93;2.17;;;2.30;99.90;;;;;;5105726;28;20036;-63
2022/01/05 01:53:11;;;;;;;5.90;2.35;;;2.30;99.90;;;;;;5108931;28;20073;-63
2022/01/05 01:55:37;;;;;;;9.55;3.25;;;2.40;99.90;;;;;;5093369;28;20024;-64
2022/01/05 01:58:05;;;;;;;6.05;2.10;;;2.50;99.90;;;;;;5108452;28;20538;-63
2022/01/05 02:00:31;;;;;;;9.30;2.22;;;2.60;99.90;;;;;;5092140;28;20027;-63
2022/01/05 02:02:56;;;;;;;5.45;2.47;;;2.60;99.90;;;;;;5108726;28;20077;-63
2022/01/05 02:05:22;;;;;;;6.00;2.08;;;2.70;99.90;;;;;;5090993;28;20024;-63
2022/01/05 02:07:48;;;;;;;7.88;2.30;;;2.80;99.90;;;;;;5108494;28;20543;-63
2022/01/05 02:10:15;;;;;;;3.85;1.55;;;2.80;99.90;;;;;;5089788;28;20023;-64
2022/01/05 02:12:40;;;;;;;6.45;2.60;;;2.90;99.90;;;;;;5108931;28;20040;-64
2022/01/05 02:15:06;;;;;;;8.95;2.22;;;2.90;99.90;;;;;;5092368;28;20032;-63
2022/01/05 02:17:46;;;;;;;4.47;1.67;;;2.90;99.90;;;;;;5112202;28;20488;-64
2022/01/05 02:20:14;;;;;;;10.30;2.00;;;2.90;99.90;;;;;;5089969;28;20372;-64
2022/01/05 02:22:40;;;;;;;5.80;2.03;;;2.90;99.90;;;;;;5091616;28;20028;-64
2022/01/05 02:25:06;;;;;;;7.72;2.25;;;3.00;99.90;;;;;;5109072;28;20032;-74
2022/01/05 02:27:31;;;;;;;8.25;2.15;;;3.00;99.90;;;;;;5106658;28;20085;-75
2022/01/05 02:29:57;;;;;;;5.43;1.80;;;3.10;99.90;;;;;;5090594;28;20388;-71
2022/01/05 02:32:22;;;;;;;3.03;1.80;;;3.10;99.90;;;;;;5111907;28;20044;-75
2022/01/05 02:34:48;;;;;;;6.75;2.20;;;3.10;99.90;;;;;;5092006;28;20456;-75
2022/01/05 02:37:13;;;;;;;4.10;1.60;;;3.20;99.90;;;;;;5109604;28;20031;-75
2022/01/05 02:39:38;;;;;;;5.70;1.92;;;3.20;99.90;;;;;;5092120;28;20079;-75
2022/01/05 02:42:04;;;;;;;9.77;2.38;;;3.20;99.90;;;;;;5088479;28;20453;-75
2022/01/05 02:44:30;;;;;;;4.57;1.73;;;3.20;99.90;;;;;;5112058;28;20035;-75
2022/01/05 02:46:56;;;;;;;5.13;2.47;;;3.30;99.90;;;;;;5090238;28;20406;-75
2022/01/05 02:49:21;;;;;;;4.25;2.20;;;3.30;99.90;;;;;;5110857;28;20215;-75
2022/01/05 02:51:47;;;;;;;7.07;3.03;;;3.30;99.90;;;;;;5089795;28;20032;-75
2022/01/05 02:54:12;;;;;;;4.85;2.65;;;3.40;99.90;;;;;;5110821;28;20487;-75
2022/01/05 02:56:38;;;;;;;7.72;2.95;;;3.40;99.90;;;;;;5090126;28;20093;-75
2022/01/05 02:59:03;;;;;;;12.68;3.28;;;3.40;99.90;;;;;;5110383;28;20038;-75
2022/01/05 03:01:29;;;;;;;8.07;2.78;;;3.40;99.90;;;;;;5089917;28;20051;-75
2022/01/05 03:03:54;;;;;;;10.32;4.03;;;3.40;99.90;;;;;;5110663;28;20030;-75
2022/01/05 03:06:20;;;;;;;10.52;3.13;;;3.40;99.90;;;;;;5089787;28;20542;-75
2022/01/05 03:08:45;;;;;;;11.00;3.83;;;3.40;99.90;;;;;;5110661;28;20024;-75
2022/01/05 03:11:11;;;;;;;12.73;4.55;;;3.40;99.90;;;;;;5089663;28;20028;-75
2022/01/05 03:13:36;;;;;;;8.27;3.30;;;3.40;99.90;;;;;;5110779;28;20032;-75
2022/01/05 03:16:02;;;;;;;11.30;3.72;;;3.50;99.90;;;;;;5099245;28;20039;-75
2022/01/05 03:18:27;;;;;;;11.10;3.72;;;3.50;99.90;;;;;;5091263;28;20028;-76
2022/01/05 03:20:53;;;;;;;8.23;3.88;;;3.50;99.90;;;;;;5099719;28;20380;-75
2022/01/05 03:23:18;;;;;;;10.85;3.92;;;3.50;99.90;;;;;;5110264;28;20031;-75
2022/01/05 03:25:44;;;;;;;11.68;4.20;;;3.50;99.90;;;;;;5095481;28;20032;-75
2022/01/05 03:28:10;;;;;;;8.73;3.10;;;3.50;99.90;;;;;;5100314;28;20048;-75
2022/01/05 03:30:36;;;;;;;7.82;2.85;;;3.50;99.90;;;;;;5108493;28;20019;-75
2022/01/05 03:33:19;;;;;;;6.70;2.58;;;3.40;99.90;;;;;;5110640;28;20108;-75
2022/01/05 03:35:46;;;;;;;4.70;1.95;;;3.40;99.90;;;;;;5088435;28;20107;-75
2022/01/05 03:38:15;;;;;;;5.38;1.80;;;3.40;99.90;;;;;;5090410;28;20062;-75
2022/01/05 03:40:42;;;;;;;7.05;1.60;;;3.50;99.90;;;;;;5108508;28;20068;-75
2022/01/05 03:43:08;;;;;;;7.80;2.53;;;3.50;99.90;;;;;;5089565;28;20034;-75
2022/01/05 03:45:35;;;;;;;7.35;3.13;;;3.50;99.90;;;;;;5108065;28;20444;-75
2022/01/05 03:48:02;;;;;;;3.25;1.55;;;3.50;99.90;;;;;;5110614;28;20030;-75
2022/01/05 03:50:27;;;;;;;2.75;1.30;;;3.50;99.90;;;;;;5093439;28;20114;-76
2022/01/05 03:52:53;;;;;;;7.20;1.30;;;3.50;99.90;;;;;;5110526;28;20035;-75
2022/01/05 03:55:18;;;;;;;5.05;1.10;;;3.50;99.90;;;;;;5092571;28;20015;-75
2022/01/05 03:57:44;;;;;;;4.13;1.40;;;3.50;99.90;;;;;;5110198;28;20020;-74
2022/01/05 04:00:10;;;;;;;4.13;1.20;;;3.50;99.90;;;;;;5091168;28;20039;-75
2022/01/05 04:02:36;;;;;;;5.45;1.38;;;3.40;99.90;;;;;;5110406;28;20489;-75
2022/01/05 04:05:01;;;;;;;2.08;1.00;;;3.40;99.90;;;;;;5089836;28;20344;-75
2022/01/05 04:07:27;;;;;;;4.95;1.58;;;3.40;99.90;;;;;;5110201;28;20020;-75
2022/01/05 04:09:52;;;;;;;4.38;1.13;;;3.30;99.90;;;;;;5088676;28;20081;-75
2022/01/05 04:12:18;;;;;;;5.25;1.58;;;3.30;99.90;;;;;;5110051;28;20034;-75
2022/01/05 04:14:44;;;;;;;6.68;2.28;;;3.20;99.90;;;;;;5088135;28;20016;-74
2022/01/05 04:17:09;;;;;;;4.10;1.17;;;3.20;99.90;;;;;;5108849;28;20036;-75
2022/01/05 04:19:35;;;;;;;4.65;0.93;;;3.20;99.90;;;;;;5088315;28;20047;-75
2022/01/05 04:22:01;;;;;;;6.75;1.00;;;3.10;99.90;;;;;;5108956;28;20100;-75
2022/01/05 04:24:27;;;;;;;3.85;0.70;;;3.00;99.90;;;;;;5087102;28;20036;-75
2022/01/05 04:26:52;;;;;;;5.78;1.20;;;3.00;99.90;;;;;;5108953;28;20039;-75
2022/01/05 04:29:18;;;;;;;5.30;0.90;;;3.00;99.90;;;;;;5087389;28;20097;-76
2022/01/05 04:31:45;;;;;;;1.95;0.60;;;3.00;99.90;;;;;;5108915;28;20035;-75
2022/01/05 04:34:11;;;;;;;1.45;0.50;;;3.00;99.90;;;;;;5098857;28;20039;-75
2022/01/05 04:36:37;;;;;;;3.50;0.68;;;3.00;99.90;;;;;;5089532;28;20218;-77
2022/01/05 04:39:03;;;;;;;3.88;0.52;;;3.00;99.90;;;;;;5107048;28;20036;-76
2022/01/05 04:41:28;;;;;;;2.72;0.52;;;3.00;99.90;;;;;;5089884;28;20355;-53
2022/01/05 04:43:54;;;;;;;4.20;0.90;;;3.00;99.90;;;;;;5101007;28;20602;-76
2022/01/05 04:46:19;;;;;;;4.70;0.88;;;2.90;99.90;;;;;;5089353;28;20061;-76
2022/01/05 04:48:45;;;;;;;2.72;0.60;;;2.90;99.90;;;;;;5109457;28;20019;-76
2022/01/05 04:51:10;;;;;;;6.25;1.30;;;2.90;99.90;;;;;;5088450;28;20562;-76
2022/01/05 04:53:36;;;;;;;4.53;1.20;;;2.90;99.90;;;;;;5109755;28;20027;-55
2022/01/05 04:56:01;;;;;;;2.25;0.95;;;2.90;99.90;;;;;;5089373;28;20024;-56
2022/01/05 04:58:27;;;;;;;6.60;1.10;;;3.00;99.90;;;;;;5106818;28;20023;-56
2022/01/05 05:00:53;;;;;;;4.50;1.65;;;2.90;99.90;;;;;;5089758;28;20030;-56
2022/01/05 05:03:18;;;;;;;4.45;0.80;;;2.90;99.90;;;;;;5109299;28;20031;-57
2022/01/05 05:05:44;;;;;;;3.53;0.80;;;2.90;99.90;;;;;;5087690;28;20035;-57
2022/01/05 05:08:09;;;;;;;2.83;0.77;;;2.90;99.90;;;;;;5089102;28;20394;-57
2022/01/05 05:10:35;;;;;;;3.42;0.73;;;2.90;99.90;;;;;;5106571;28;20023;-57
2022/01/05 05:13:10;;;;;;;4.50;0.63;;;2.90;99.90;;;;;;5109329;28;20413;-57
2022/01/05 05:15:36;;;;;;;4.25;0.70;;;2.90;99.90;;;;;;5087427;28;20084;-57
2022/01/05 05:18:03;;;;;;;4.25;1.35;;;2.90;99.90;;;;;;5088870;28;20062;-54
2022/01/05 05:20:28;;;;;;;6.72;1.30;;;2.90;99.90;;;;;;5106520;28;20026;-56
2022/01/05 05:22:54;;;;;;;4.65;1.25;;;2.90;99.90;;;;;;5109104;28;20020;-56
2022/01/05 05:25:19;;;;;;;3.40;0.70;;;2.90;99.90;;;;;;5088062;28;20034;-56
2022/01/05 05:27:45;;;;;;;4.80;0.93;;;2.90;99.90;;;;;;5101939;28;20052;-55
2022/01/05 05:30:11;;;;;;;7.10;0.93;;;2.90;99.90;;;;;;5089053;28;20028;-54
2022/01/05 05:32:36;;;;;;;1.42;0.68;;;3.00;99.90;;;;;;5106801;28;20036;-56
2022/01/05 05:35:02;;;;;;;2.78;0.60;;;2.90;99.90;;;;;;5089257;28;20394;-54
2022/01/05 05:37:27;;;;;;;5.65;0.70;;;2.90;99.90;;;;;;5087656;28;20032;-55
2022/01/05 05:39:53;;;;;;;3.13;0.80;;;2.90;99.90;;;;;;5104056;28;20096;-57
2022/01/05 05:42:18;;;;;;;2.03;0.60;;;2.90;99.90;;;;;;5091919;28;20024;-56
2022/01/05 05:44:44;;;;;;;6.03;0.77;;;2.90;99.90;;;;;;5107086;28;20030;-54
2022/01/05 05:47:09;;;;;;;2.22;0.98;;;2.80;99.90;;;;;;5089092;28;20032;-53
2022/01/05 05:49:35;;;;;;;1.20;0.60;;;2.80;99.90;;;;;;5110153;28;20439;-55
2022/01/05 05:52:00;;;;;;;3.53;0.90;;;2.70;99.90;;;;;;5112859;28;20542;-56
2022/01/05 05:54:26;;;;;;;3.30;0.80;;;2.70;99.90;;;;;;5096734;28;20035;-55
2022/01/05 05:56:51;;;;;;;4.47;1.00;;;2.70;99.90;;;;;;5111811;28;20097;-56
2022/01/05 05:59:17;;;;;;;5.10;0.70;;;2.70;99.90;;;;;;5095285;28;20097;-54
2022/01/05 06:01:42;;;;;;;6.32;1.00;;;2.70;99.90;;;;;;5112945;28;20030;-55
2022/01/05 06:04:08;;;;;;;2.50;0.75;;;2.70;99.90;;;;;;5093738;28;20108;-56
2022/01/05 06:06:33;;;;;;;9.10;0.90;;;2.60;99.90;;;;;;5112617;28;20436;-54
2022/01/05 06:08:59;;;;;;;3.72;0.80;;;2.60;99.90;;;;;;5090984;28;20491;-56
2022/01/05 06:11:24;;;;;;;5.53;0.80;;;2.60;99.90;;;;;;5112733;28;20036;-54
2022/01/05 06:13:52;;;;;;;3.75;0.80;;;2.50;99.90;;;;;;5091179;28;20533;-56
2022/01/05 06:16:18;;;;;;;4.53;0.82;;;2.40;99.90;;;;;;5110042;28;20027;-57
2022/01/05 06:19:23;;;;;;;4.88;1.00;;;2.40;99.90;;;;;;5112352;28;20034;-54
2022/01/05 06:22:49;;;;;;;3.13;0.60;;;2.30;99.90;;;;;;5095169;28;20035;-56
2022/01/05 06:26:14;;;;;;;2.20;0.50;;;2.30;99.90;;;;;;5106164;28;20041;-56
2022/01/05 06:29:39;;;;;;;9.32;1.08;;;2.20;99.90;;;;;;5105663;28;20039;-56
2022/01/05 06:33:05;;;;;;;3.35;0.80;;;2.00;99.90;;;;;;5092843;28;20043;-54
2022/01/05 06:36:30;;;;;;;4.97;0.70;;;1.90;99.90;;;;;;5106122;28;20417;-57
2022/01/05 06:39:55;;;;;;;2.30;0.57;;;1.70;99.90;;;;;;5105942;28;20032;-57
2022/01/05 06:43:21;;;;;;;3.13;0.60;;;1.60;99.90;;;;;;5083408;28;20522;-57
2022/01/05 06:46:46;;;;;;;6.95;1.10;;;1.60;99.90;;;;;;5107565;28;20035;-57
2022/01/05 06:50:11;;;;;;;1.80;0.60;;;1.60;99.90;;;;;;5092957;28;20032;-57
2022/01/05 06:53:37;;;;;;;5.15;0.80;;;1.60;99.90;;;;;;5102700;28;20439;-52
2022/01/05 06:57:02;;;;;;;12.73;1.30;;;1.60;99.90;;;;;;5102490;28;20088;-53
2022/01/05 07:00:28;;;;;;;6.80;0.88;;;1.60;99.90;;;;;;5089953;28;20695;-56
2022/01/05 07:03:53;;;;;;;3.35;1.00;;;1.70;99.90;;;;;;5104435;28;20045;-53
2022/01/05 07:07:18;;;;;;;5.30;0.98;;;1.60;99.90;;;;;;5106385;28;20040;-56
2022/01/05 07:10:44;;;;;;;6.28;1.17;;;1.60;99.90;;;;;;5104095;28;20027;-56
2022/01/05 07:14:09;;;;;;;5.22;0.90;;;1.40;99.90;;;;;;5089715;28;20144;-56
2022/01/05 07:17:34;;;;;;;11.20;1.63;;;1.30;99.90;;;;;;5087702;28;20372;-55
2022/01/05 07:21:00;;;;;;;5.82;1.38;;;1.20;99.90;;;;;;5089637;28;20115;-53
2022/01/05 07:24:25;;;;;;;4.93;1.13;;;1.20;99.90;;;;;;5106880;28;20035;-50
2022/01/05 07:27:50;;;;;;;7.68;1.17;;;1.20;99.90;;;;;;5096495;28;20036;-52
2022/01/05 07:31:16;;;;;;;7.30;1.40;;;1.10;99.90;;;;;;5089418;28;20038;-55
2022/01/05 07:34:41;;;;;;;5.78;1.20;;;1.20;99.90;;;;;;5103732;28;20031;-53
2022/01/05 07:38:07;;;;;;;4.30;1.10;;;1.30;99.90;;;;;;5092091;28;20507;-55
2022/01/05 07:41:32;;;;;;;4.88;1.17;;;1.30;99.90;;;;;;5105666;28;20063;-57
2022/01/05 07:44:57;;;;;;;5.20;1.17;;;1.30;99.90;;;;;;5094546;28;20036;-50
2022/01/05 07:48:23;;;;;;;6.90;1.40;;;1.40;99.90;;;;;;5086857;28;20031;-52
2022/01/05 07:51:48;;;;;;;5.15;1.55;;;1.50;99.90;;;;;;5103016;28;20051;-50
2022/01/05 07:55:14;;;;;;;5.03;1.70;;;1.70;99.90;;;;;;5090520;28;20072;-51
2022/01/05 07:58:39;;;;;;;1.80;1.08;;;1.80;99.90;;;;;;5086975;28;20024;-52
2022/01/05 08:02:04;;;;;;;6.15;1.20;;;1.90;99.90;;;;;;5104097;28;20106;-51
2022/01/05 08:05:29;;;;;;;5.32;1.20;;;2.00;99.90;;;;;;5088836;28;20044;-56
2022/01/05 08:08:55;;;;;;;9.63;1.15;;;2.00;99.90;;;;;;5103305;28;20042;-51
2022/01/05 08:12:20;;;;;;;7.53;1.40;;;2.00;99.90;;;;;;5093238;28;20042;-55
2022/01/05 08:15:46;;;;;;;4.90;1.23;;;2.10;99.90;;;;;;5102450;28;20028;-53
2022/01/05 08:19:11;;;;;;;7.57;1.30;;;2.20;99.90;;;;;;5103092;28;20555;-54
2022/01/05 08:22:36;;;;;;;5.65;1.48;;;2.20;99.90;;;;;;5091498;28;20130;-53
2022/01/05 08:26:02;;;;;;;3.80;1.25;;;2.30;99.90;;;;;;5102646;28;20095;-56
2022/01/05 08:29:27;;;;;;;3.53;0.85;;;2.40;99.90;;;;;;5107084;28;20047;-55
2022/01/05 08:32:53;;;;;;;9.38;1.23;;;2.50;99.90;;;;;;5092808;28;20036;-57
2022/01/05 08:36:18;;;;;;;2.15;1.08;;;2.60;99.90;;;;;;5106303;28;20043;-54
2022/01/05 08:39:43;;;;;;;4.93;1.60;;;2.70;99.90;;;;;;5102423;28;20036;-55
2022/01/05 08:43:08;;;;;;;7.20;1.38;;;2.80;99.90;;;;;;5091015;28;20119;-56
2022/01/05 08:46:34;;;;;;;5.38;1.48;;;2.90;99.90;;;;;;5103485;28;20032;-56
2022/01/05 08:49:59;;;;;;;4.95;2.00;;;3.00;99.90;;;;;;5093174;28;20081;-56
2022/01/05 08:53:25;;;;;;;12.02;2.30;;;3.10;99.90;;;;;;5086154;28;20446;-53
2022/01/05 08:56:50;;;;;;;8.55;1.70;;;3.20;99.90;;;;;;5100578;28;20089;-46
2022/01/05 09:00:15;;;;;;;3.50;1.20;;;3.20;99.90;;;;;;5088170;28;20067;-46
2022/01/05 09:03:41;;;;;;;6.45;1.25;;;3.20;99.90;;;;;;5085910;28;20106;-49
2022/01/05 09:07:06;;;;;;;5.15;1.33;;;3.10;99.90;;;;;;5103436;28;20028;-51
2022/01/05 09:10:31;;;;;;;5.53;1.85;;;3.10;99.90;;;;;;5087821;28;20032;-52
2022/01/05 09:13:57;;;;;;;6.38;1.38;;;3.00;99.90;;;;;;5087508;28;20086;-50
2022/01/05 09:17:22;;;;;;;7.78;1.50;;;3.10;99.90;;;;;;5092706;28;20119;-50
2022/01/05 09:20:48;;;;;;;9.30;2.03;;;3.20;99.90;;;;;;5106038;28;20061;-52
2022/01/05 09:24:13;;;;;;;3.85;1.23;;;4.30;99.90;;;;;;5105269;28;20024;-48
2022/01/05 09:27:38;;;;;;;9.75;2.20;;;4.60;99.90;;;;;;5097722;28;20272;-48
2022/01/05 09:31:04;;;;;;;11.88;1.88;;;4.70;99.90;;;;;;5094222;28;20040;-47
2022/01/05 09:34:29;;;;;;;6.97;1.67;;;5.10;99.90;;;;;;5110454;28;20571;-48
2022/01/05 09:38:05;;;;;;;3.95;1.45;;;5.40;99.90;;;;;;5091897;28;20111;-50
2022/01/05 09:44:48;;;;;;;7.57;2.28;;;5.70;99.90;;;;;;5084423;28;20039;-50
2022/01/05 09:47:35;;;;;;;;;;;5.80;99.90;;;;;;5095137;28;20332;-46
2022/01/05 09:51:12;;;;;;;11.68;2.03;;;5.70;99.90;;;;;;5091022;28;19959;-48
2022/01/05 09:54:42;;;;;;;7.72;1.70;;;5.50;99.90;;;;;;5073310;28;20234;-47
2022/01/05 09:58:03;;;;;;;4.57;1.20;;;5.20;99.90;;;;;;5090919;28;20032;-49
2022/01/05 10:01:29;;;;;;;6.53;1.38;;;5.10;99.90;;;;;;5087861;28;20044;-50
2022/01/05 10:04:54;;;;;;;8.02;1.90;;;5.10;99.90;;;;;;5092598;28;20119;-46
2022/01/05 10:08:19;;;;;;;8.80;2.40;;;5.00;99.90;;;;;;5091826;28;20032;-47
2022/01/05 10:11:45;;;;;;;8.43;2.40;;;4.90;99.90;;;;;;5107484;28;20039;-49
2022/01/05 10:15:10;;;;;;;8.13;1.90;;;5.00;99.90;;;;;;5090746;28;20055;-50
2022/01/05 10:19:00;;;;;;;7.00;1.70;;;5.00;99.90;;;;;;5089597;28;20059;-47
2022/01/05 10:22:26;;;;;;;5.88;1.35;;;5.00;99.90;;;;;;5107711;28;20039;-50
2022/01/05 10:25:56;;;;;;;9.10;1.92;;;5.00;99.90;;;;;;5105290;28;20628;-49
2022/01/05 10:29:28;;;;;;;8.85;1.80;;;5.10;99.90;;;;;;5108919;28;20097;-46
2022/01/05 10:32:53;;;;;;;6.47;1.25;;;5.00;99.90;;;;;;5093235;28;20047;-50
2022/01/05 10:36:18;;;;;;;5.85;1.60;;;5.00;99.90;;;;;;5105020;28;20117;-53
2022/01/05 10:39:44;;;;;;;7.65;1.60;;;5.00;99.90;;;;;;5089262;28;20484;-47
2022/01/05 10:43:09;;;;;;;10.73;1.83;;;5.00;99.90;;;;;;5085416;28;20067;-49
2022/01/05 10:46:35;;;;;;;13.65;2.42;;;4.90;99.90;;;;;;5102930;28;20032;-48
2022/01/05 10:50:03;;;;;;;8.68;1.88;;;4.90;99.90;;;;;;5094547;28;20042;-51
2022/01/05 10:53:08;;;;;;;;;;;4.90;99.90;;;;;;5088408;28;20453;-53
2022/01/05 10:56:34;;;;;;;8.25;1.80;;;4.80;99.90;;;;;;5088305;28;20389;-46
2022/01/05 11:00:05;;;;;;;9.80;1.88;;;4.80;99.90;;;;;;5109510;28;20067;-48
2022/01/05 11:03:41;;;;;;;7.78;1.92;;;4.80;99.90;;;;;;5087851;28;20065;-50
2022/01/05 11:07:14;;;;;;;4.72;1.90;;;4.80;99.90;;;;;;5102509;28;20126;-52
2022/01/05 11:10:39;;;;;;;11.10;1.90;;;4.80;99.90;;;;;;5104549;28;20067;-47
2022/01/05 11:14:10;;;;;;;10.57;2.28;;;4.80;99.90;;;;;;5108389;28;20193;-48
2022/01/05 11:17:36;;;;;;;7.88;1.67;;;4.90;99.90;;;;;;5106134;28;20303;-50
2022/01/05 11:21:04;;;;;;;5.78;1.30;;;4.90;99.90;;;;;;5104307;28;20398;-50
2022/01/05 11:24:29;;;;;;;6.60;1.65;;;5.00;99.90;;;;;;5104257;28;20047;-52
2022/01/05 11:27:55;;;;;;;9.80;2.38;;;5.10;99.90;;;;;;5091917;28;20315;-51
2022/01/05 11:31:20;;;;;;;8.98;2.75;;;5.10;99.90;;;;;;5089439;28;20046;-49
2022/01/05 11:34:45;;;;;;;9.27;2.65;;;5.10;99.90;;;;;;5103967;28;20032;-50
2022/01/05 11:38:11;;;;;;;11.00;2.30;;;5.20;99.90;;;;;;5087680;28;20396;-50
2022/01/05 11:41:36;;;;;;;8.48;3.13;;;5.30;99.90;;;;;;5101816;28;20032;-47
2022/01/05 11:45:05;;;;;;;9.45;2.40;;;5.40;99.90;;;;;;5089120;28;20096;-50
2022/01/05 11:48:22;;;;;;;13.30;3.40;;;5.40;99.90;;;;;;5087324;28;20131;-50
2022/01/05 11:51:48;;;;;;;10.43;2.58;;;5.40;99.90;;;;;;5101259;28;20147;-49
2022/01/05 11:55:22;;;;;;;10.25;2.13;;;5.50;99.90;;;;;;5090745;28;20542;-51
2022/01/05 11:59:11;;;;;;;7.32;1.38;;;5.60;99.90;;;;;;5086991;28;20080;-48
2022/01/05 12:02:37;;;;;;;5.00;1.80;;;5.60;99.90;;;;;;5088038;28;20562;-48
2022/01/05 12:05:22;;;;;;;7.18;1.90;;;5.70;99.90;;;;;;5105729;28;20043;-47
2022/01/05 12:07:48;;;;;;;8.20;2.67;;;5.70;99.90;;;;;;5088154;28;20035;-49
2022/01/05 12:10:22;;;;;;;10.23;2.38;;;5.70;99.90;;;;;;5109110;28;20023;-50
2022/01/05 12:13:05;;;;;;;6.88;1.67;;;5.70;99.90;;;;;;5086806;28;20044;-48
2022/01/05 12:15:52;;;;;;;8.25;1.77;;;5.70;99.90;;;;;;5088599;28;20038;-51
2022/01/05 12:18:26;;;;;;;6.93;1.73;;;5.60;99.90;;;;;;5086859;28;20077;-51
2022/01/05 12:20:53;;;;;;;7.35;1.73;;;5.50;99.90;;;;;;5088694;28;20032;-51
2022/01/05 12:23:18;;;;;;;10.93;1.90;;;5.50;99.90;;;;;;5106409;28;20098;-47
2022/01/05 12:26:02;;;;;;;10.27;1.98;;;5.50;99.90;;;;;;5109165;28;20131;-52
2022/01/05 12:28:40;;;;;;;6.93;1.85;;;5.40;99.90;;;;;;5086219;28;20040;-52
2022/01/05 12:31:09;;;;;;;9.77;1.73;;;5.30;99.90;;;;;;5088430;28;20527;-49
2022/01/05 12:33:51;;;;;;;7.60;1.40;;;5.30;99.90;;;;;;5086510;28;20051;-53
2022/01/05 12:36:38;;;;;;;9.20;1.90;;;5.30;99.90;;;;;;5108400;28;20390;-48
2022/01/05 12:39:05;;;;;;;6.75;1.92;;;5.30;99.90;;;;;;5097802;28;20443;-50
2022/01/05 12:41:35;;;;;;;3.67;1.60;;;5.20;99.90;;;;;;5088500;28;20043;-60
2022/01/05 12:44:22;;;;;;;6.80;2.35;;;5.20;99.90;;;;;;5089453;28;20032;-58
2022/01/05 12:46:52;;;;;;;7.70;2.30;;;5.20;99.90;;;;;;5076585;28;20083;-60
2022/01/05 12:49:22;;;;;;;7.25;2.22;;;5.10;99.90;;;;;;5093101;28;20129;-59
2022/01/05 12:52:09;;;;;;;5.50;1.98;;;5.10;99.90;;;;;;5094758;28;20416;-59
2022/01/05 12:54:42;;;;;;;4.13;1.40;;;5.10;99.90;;;;;;5092765;28;20487;-60
2022/01/05 12:57:14;;;;;;;8.20;1.73;;;5.10;99.90;;;;;;5095051;28;20039;-59
2022/01/05 12:59:43;;;;;;;6.15;2.35;;;5.00;99.90;;;;;;5100335;28;20033;-60
2022/01/05 13:02:18;;;;;;;6.25;2.10;;;5.00;99.90;;;;;;5092734;28;20024;-59
2022/01/05 13:04:46;;;;;;;7.60;1.83;;;5.00;99.90;;;;;;5093911;28;20032;-60
2022/01/05 13:07:12;;;;;;;9.55;2.08;;;5.00;99.90;;;;;;5094138;28;20034;-60
2022/01/05 13:09:50;;;;;;;10.25;2.15;;;4.90;99.90;;;;;;5096683;28;20074;-60
2022/01/05 13:12:22;;;;;;;10.55;1.90;;;4.90;99.90;;;;;;5097993;28;20138;-59
2022/01/05 13:14:53;;;;;;;8.52;2.33;;;4.90;99.90;;;;;;5097621;28;20024;-59
2022/01/05 13:17:21;;;;;;;4.15;1.83;;;4.90;99.90;;;;;;5083655;28;20032;-58
2022/01/05 13:19:58;;;;;;;6.43;1.70;;;4.90;99.90;;;;;;5085944;28;20035;-59
2022/01/05 13:22:26;;;;;;;3.22;1.85;;;4.90;99.90;;;;;;5094546;28;20027;-58
2022/01/05 13:25:27;;;;;;;5.30;2.00;;;4.90;99.90;;;;;;5096060;28;20034;-59
2022/01/05 13:27:55;;;;;;;9.38;2.80;;;4.90;99.90;;;;;;5088713;28;20044;-60
2022/01/05 13:30:23;;;;;;;6.10;2.92;;;4.90;99.90;;;;;;5089953;28;20028;-59
2022/01/05 13:32:51;;;;;;;7.13;2.10;;;4.80;99.90;;;;;;5086208;28;20079;-59
2022/01/05 13:35:23;;;;;;;12.88;2.90;;;4.80;99.90;;;;;;5088209;28;20116;-59
2022/01/05 13:37:59;;;;;;;8.52;2.80;;;4.80;99.90;;;;;;5083378;28;20036;-59
2022/01/05 13:40:29;;;;;;;5.95;2.30;;;4.80;99.90;;;;;;5084000;28;20032;-59
2022/01/05 13:42:58;;;;;;;11.50;2.67;;;4.80;99.90;;;;;;5083354;28;20071;-59
2022/01/05 13:45:26;;;;;;;10.85;2.50;;;4.80;99.90;;;;;;5087510;28;20066;-59
2022/01/05 13:48:18;;;;;;;9.45;3.03;;;4.80;99.90;;;;;;5089457;28;20035;-59
2022/01/05 13:51:43;;;;;;;7.18;2.17;;;4.80;99.90;;;;;;5093911;28;20499;-59
2022/01/05 13:55:09;;;;;;;9.95;2.30;;;4.80;99.90;;;;;;5096392;28;20035;-59
2022/01/05 13:58:23;;;;;;;4.47;1.75;;;4.70;99.90;;;;;;5098815;28;20047;-60
2022/01/05 14:01:52;;;;;;;9.15;2.80;;;4.70;99.90;;;;;;5093397;28;20043;-60
2022/01/05 14:05:06;;;;;;;;;;;4.60;99.90;;;;;;5092818;28;20511;-60
2022/01/05 14:08:47;;;;;;;7.25;2.03;;;4.60;99.90;;;;;;5086106;28;20271;-60
2022/01/05 14:12:13;;;;;;;5.13;1.60;;;4.60;99.90;;;;;;5097310;28;20043;-59
2022/01/05 14:15:38;;;;;;;5.60;2.33;;;4.60;99.90;;;;;;5105386;28;20530;-59
2022/01/05 14:19:03;;;;;;;7.05;2.05;;;4.60;99.90;;;;;;5103380;28;20036;-59
2022/01/05 14:22:29;;;;;;;7.38;1.90;;;4.50;99.90;;;;;;5091655;28;20028;-59
2022/01/05 14:25:14;;;;;;;7.80;1.50;;;4.50;99.90;;;;;;5096609;28;20408;-62
2022/01/05 14:27:43;;;;;;;6.35;1.83;;;4.50;99.90;;;;;;5103888;28;20048;-63
2022/01/05 14:30:11;;;;;;;6.35;1.88;;;4.50;99.90;;;;;;5094517;28;20203;-63
2022/01/05 14:32:39;;;;;;;6.68;2.10;;;4.50;99.90;;;;;;5111270;28;20039;-63
2022/01/05 14:35:16;;;;;;;6.63;2.28;;;4.60;99.90;;;;;;5094288;28;20035;-62
2022/01/05 14:38:02;;;;;;;12.68;3.15;;;4.70;99.90;;;;;;5110988;28;20026;-63
2022/01/05 14:40:30;;;;;;;7.45;2.38;;;4.70;99.90;;;;;;5089031;28;20028;-63
2022/01/05 14:43:00;;;;;;;4.65;1.90;;;4.80;99.90;;;;;;5095325;28;20036;-63
2022/01/05 14:45:32;;;;;;;5.07;1.58;;;4.70;99.90;;;;;;5088627;28;20016;-60
2022/01/05 14:47:57;;;;;;;5.35;1.80;;;4.70;99.90;;;;;;5090503;28;20028;-61
2022/01/05 14:50:23;;;;;;;10.90;2.67;;;4.60;99.90;;;;;;5108198;28;20096;-61